Archival Weather

South Haven Area Rgnl

South Haven, Michigan (KLWA)

Report from: Thursday, September 21, 2023 5:35 PM EDT
Current time: Sunday, July 14, 2024 6:49 AM EDT

Current weather – Weather history – Daily summaries
Weather forecast

Temperature25.4°C (77.7°F)
Dew point16.5°C (61.7°F)
Winds Calm
Visibility10 mi. (16.1 km)
Clouds Sky clear
Altimeter30.20 in.Hg (1023 mB)
Relative humidity58 %
Density altitude1,145 ft. (349 m)
Remarks Fully automated report
Automated weather observing station with precipitation discriminator
Flight conditions Visual Meteorological Conditions
Raw dataKLWA 212135Z AUTO 00000KT 10SM CLR 25/17 A3020 RMK AO2 T02540165
An error has occurred. This application may no longer respond until reloaded. Reload 🗙